Time;durP1;ratioP1;P1;durP2;ratioP2;P2;SDS_P1;SDS_P2;PMS_P1;PMS_P2;Temp;Humidity;BMP_temperature;BMP_pressure;BME280_temperature;BME280_humidity;BME280_pressure;Samples;Min_cycle;Max_cycle;Signal;HPM_P1;HPM_P2
2022/01/29 00:01:17;;;;;;;2.72;2.53;;;5.80;99.90;;;;;;5086228;28;20192;-69
2022/01/29 00:03:43;;;;;;;3.63;3.33;;;5.80;99.90;;;;;;5088055;28;20212;-69
2022/01/29 00:06:10;;;;;;;3.63;2.70;;;5.90;99.90;;;;;;5084833;28;20193;-69
2022/01/29 00:08:37;;;;;;;3.95;2.22;;;5.90;99.90;;;;;;5086930;28;20204;-69
2022/01/29 00:11:09;;;;;;;2.97;2.25;;;5.90;99.90;;;;;;5088512;28;20208;-69
2022/01/29 00:13:38;;;;;;;2.53;2.08;;;5.90;99.90;;;;;;5079786;22;20349;-68
2022/01/29 00:16:05;;;;;;;3.45;3.03;;;5.90;99.90;;;;;;5040255;28;20524;-68
2022/01/29 00:18:32;;;;;;;3.40;2.30;;;5.90;99.90;;;;;;5040312;28;20209;-68
2022/01/29 00:20:59;;;;;;;6.18;2.60;;;5.90;99.90;;;;;;5040023;28;20296;-68
2022/01/29 00:23:25;;;;;;;4.00;3.30;;;6.00;99.90;;;;;;5034695;28;20225;-68
2022/01/29 00:25:52;;;;;;;2.17;1.65;;;6.00;99.90;;;;;;5023515;28;20343;-68
2022/01/29 00:28:19;;;;;;;4.15;3.50;;;6.00;99.90;;;;;;5027082;28;20206;-68
2022/01/29 00:30:47;;;;;;;3.30;2.13;;;6.00;99.90;;;;;;5018587;28;20218;-68
2022/01/29 00:33:14;;;;;;;3.45;2.60;;;6.10;99.90;;;;;;5019214;28;20226;-68
2022/01/29 00:35:41;;;;;;;2.47;2.28;;;6.10;99.90;;;;;;5019776;28;20291;-68
2022/01/29 00:38:08;;;;;;;3.55;2.63;;;6.10;99.90;;;;;;5028522;28;20206;-68
2022/01/29 00:40:36;;;;;;;5.93;3.83;;;6.10;99.90;;;;;;5033425;28;20398;-68
2022/01/29 00:43:04;;;;;;;3.55;3.15;;;6.10;99.90;;;;;;5022284;28;20253;-68
2022/01/29 00:45:31;;;;;;;3.90;3.42;;;6.10;99.90;;;;;;5016373;28;20791;-68
2022/01/29 00:48:00;;;;;;;6.57;4.22;;;6.20;99.90;;;;;;5018314;28;20266;-68
2022/01/29 00:50:26;;;;;;;8.55;4.47;;;6.20;99.90;;;;;;5013788;28;20536;-69
2022/01/29 00:52:53;;;;;;;5.05;4.45;;;6.20;99.90;;;;;;5020358;28;20227;-68
2022/01/29 00:55:20;;;;;;;4.68;4.20;;;6.30;99.90;;;;;;5020771;28;20218;-68
2022/01/29 00:57:47;;;;;;;7.57;3.75;;;6.40;99.90;;;;;;5022539;28;20210;-68
2022/01/29 01:00:15;;;;;;;7.75;4.95;;;6.40;99.90;;;;;;5040380;28;20205;-68
2022/01/29 01:02:42;;;;;;;8.88;3.60;;;6.40;99.90;;;;;;5024986;28;20228;-68
2022/01/29 01:05:11;;;;;;;3.47;2.90;;;6.50;99.90;;;;;;5025385;28;20210;-68
2022/01/29 01:07:37;;;;;;;4.57;3.72;;;6.40;99.90;;;;;;5026597;28;20611;-68
2022/01/29 01:10:05;;;;;;;5.43;4.68;;;6.40;99.90;;;;;;5034673;28;20206;-68
2022/01/29 01:12:32;;;;;;;14.85;4.32;;;6.40;99.90;;;;;;5014381;28;20227;-68
2022/01/29 01:14:58;;;;;;;4.68;3.85;;;6.50;99.90;;;;;;5022690;28;20654;-68
2022/01/29 01:17:25;;;;;;;8.60;4.20;;;6.50;99.90;;;;;;5023349;28;20278;-68
2022/01/29 01:19:52;;;;;;;8.38;4.90;;;6.50;99.90;;;;;;5018560;28;20203;-68
2022/01/29 01:22:20;;;;;;;4.40;3.58;;;6.60;99.90;;;;;;5023089;28;20218;-68
2022/01/29 01:24:48;;;;;;;13.35;6.40;;;6.60;99.90;;;;;;5038491;28;20194;-68
2022/01/29 01:27:14;;;;;;;10.48;4.35;;;6.70;99.90;;;;;;5026672;28;20289;-68
2022/01/29 01:29:41;;;;;;;6.15;4.03;;;6.60;99.90;;;;;;5022140;28;20697;-68
2022/01/29 01:32:11;;;;;;;5.57;3.05;;;6.60;99.90;;;;;;5020424;28;20199;-68
2022/01/29 01:34:41;;;;;;;8.75;4.65;;;6.60;99.90;;;;;;5025825;28;20250;-68
2022/01/29 01:37:12;;;;;;;6.95;4.88;;;6.60;99.90;;;;;;5023928;28;20207;-68
2022/01/29 01:39:41;;;;;;;6.57;4.10;;;6.70;99.90;;;;;;5026746;28;20413;-68
2022/01/29 01:42:08;;;;;;;7.53;4.95;;;6.70;99.90;;;;;;5014900;28;20195;-68
2022/01/29 01:44:37;;;;;;;6.63;4.03;;;6.60;99.90;;;;;;5018784;28;20654;-68
2022/01/29 01:47:05;;;;;;;8.15;5.15;;;6.70;99.90;;;;;;5015384;28;20692;-68
2022/01/29 01:49:32;;;;;;;10.85;4.78;;;6.60;99.90;;;;;;5022111;28;20706;-68
2022/01/29 01:51:59;;;;;;;4.35;3.95;;;6.70;99.90;;;;;;5026775;28;20469;-68
2022/01/29 01:54:26;;;;;;;5.22;3.90;;;6.70;99.90;;;;;;5020978;28;20279;-68
2022/01/29 01:56:54;;;;;;;6.70;4.43;;;6.70;99.90;;;;;;5015163;28;20284;-68
2022/01/29 01:59:21;;;;;;;3.88;3.35;;;6.60;99.90;;;;;;5019478;28;20257;-68
2022/01/29 02:01:47;;;;;;;6.68;5.00;;;6.70;99.90;;;;;;5015035;28;20207;-68
2022/01/29 02:04:14;;;;;;;6.07;5.57;;;6.70;99.90;;;;;;5021910;28;20311;-68
2022/01/29 02:06:41;;;;;;;10.35;5.95;;;6.70;99.90;;;;;;5013028;28;20203;-68
2022/01/29 02:09:08;;;;;;;6.07;4.47;;;6.70;99.90;;;;;;5019169;28;20207;-67
2022/01/29 02:11:38;;;;;;;5.55;4.88;;;6.70;99.90;;;;;;5022965;28;20766;-68
2022/01/29 02:14:06;;;;;;;7.40;5.82;;;6.70;99.90;;;;;;5020430;28;20222;-68
2022/01/29 02:16:32;;;;;;;6.00;4.20;;;6.70;99.90;;;;;;5019814;28;20359;-68
2022/01/29 02:18:59;;;;;;;9.15;5.22;;;6.70;99.90;;;;;;5032339;28;20271;-68
2022/01/29 02:21:28;;;;;;;9.93;5.22;;;6.60;99.90;;;;;;5024672;28;20206;-68
2022/01/29 02:23:55;;;;;;;5.97;4.45;;;6.60;99.90;;;;;;5034955;28;20226;-68
2022/01/29 02:26:22;;;;;;;8.10;4.60;;;6.60;99.90;;;;;;5025758;28;20203;-68
2022/01/29 02:28:48;;;;;;;7.28;5.13;;;6.60;99.90;;;;;;5023465;28;20254;-68
2022/01/29 02:31:15;;;;;;;10.20;5.65;;;6.60;99.90;;;;;;5029207;28;20692;-68
2022/01/29 02:33:43;;;;;;;7.43;5.40;;;6.60;99.90;;;;;;5017557;28;20308;-68
2022/01/29 02:36:10;;;;;;;5.10;4.43;;;6.70;99.90;;;;;;5021042;28;20269;-68
2022/01/29 02:38:38;;;;;;;6.55;5.22;;;6.70;99.90;;;;;;5016523;28;20349;-68
2022/01/29 02:41:06;;;;;;;5.20;4.68;;;6.70;99.90;;;;;;5024410;28;20202;-68
2022/01/29 02:43:38;;;;;;;6.75;4.90;;;6.70;99.90;;;;;;5016495;28;20350;-68
2022/01/29 02:46:12;;;;;;;8.25;5.57;;;6.70;99.90;;;;;;5022025;28;20243;-68
2022/01/29 02:48:39;;;;;;;9.95;4.93;;;6.70;99.90;;;;;;5025781;28;20211;-68
2022/01/29 02:51:05;;;;;;;7.18;6.07;;;6.80;99.90;;;;;;5026574;28;20589;-68
2022/01/29 02:53:32;;;;;;;7.10;5.30;;;6.70;99.90;;;;;;5024167;28;20227;-68
2022/01/29 02:56:00;;;;;;;8.65;6.20;;;6.70;99.90;;;;;;5024141;28;20203;-68
2022/01/29 02:58:27;;;;;;;5.05;4.53;;;6.70;99.90;;;;;;5018829;28;20203;-68
2022/01/29 03:00:54;;;;;;;8.40;6.05;;;6.80;99.90;;;;;;5012405;28;20284;-68
2022/01/29 03:03:20;;;;;;;8.60;4.75;;;6.70;99.90;;;;;;5016566;28;20701;-67
2022/01/29 03:05:47;;;;;;;8.15;5.60;;;6.70;99.90;;;;;;5016690;28;20215;-68
2022/01/29 03:08:14;;;;;;;11.77;5.40;;;6.80;99.90;;;;;;5011403;28;20261;-68
2022/01/29 03:10:40;;;;;;;5.60;4.45;;;6.80;99.90;;;;;;5014817;28;20269;-68
2022/01/29 03:13:08;;;;;;;14.15;6.05;;;6.80;99.90;;;;;;5021046;28;20658;-68
2022/01/29 03:15:35;;;;;;;7.95;4.70;;;6.80;99.90;;;;;;5018932;28;20218;-68
2022/01/29 03:18:02;;;;;;;6.68;5.55;;;6.70;99.90;;;;;;5026399;28;20641;-68
2022/01/29 03:20:30;;;;;;;6.70;5.38;;;6.70;99.90;;;;;;5023858;28;20272;-68
2022/01/29 03:22:57;;;;;;;4.93;4.43;;;6.70;99.90;;;;;;5028275;28;20233;-68
2022/01/29 03:25:23;;;;;;;5.15;4.32;;;6.70;99.90;;;;;;5032121;28;20202;-68
2022/01/29 03:27:50;;;;;;;13.20;5.60;;;6.70;99.90;;;;;;5020777;28;20284;-68
2022/01/29 03:30:18;;;;;;;7.40;5.50;;;6.70;99.90;;;;;;5023146;28;20211;-67
2022/01/29 03:32:45;;;;;;;4.50;3.80;;;6.70;99.90;;;;;;5022824;28;20689;-68
2022/01/29 03:35:12;;;;;;;11.85;6.00;;;6.70;99.90;;;;;;5035895;28;20462;-68
2022/01/29 03:37:39;;;;;;;5.88;5.03;;;6.70;99.90;;;;;;5008231;28;20811;-68
2022/01/29 03:40:08;;;;;;;7.05;5.22;;;6.70;99.90;;;;;;5026365;28;20210;-68
2022/01/29 03:42:40;;;;;;;7.25;4.75;;;6.70;99.90;;;;;;5026314;28;20229;-68
2022/01/29 03:45:08;;;;;;;10.10;4.97;;;6.70;99.90;;;;;;5027550;28;20280;-68
2022/01/29 03:47:36;;;;;;;9.10;7.05;;;6.70;99.90;;;;;;5019752;28;20278;-68
2022/01/29 03:50:04;;;;;;;6.90;5.30;;;6.70;99.90;;;;;;5025182;28;20261;-68
2022/01/29 03:52:31;;;;;;;10.77;6.65;;;6.70;99.90;;;;;;5028028;28;20202;-68
2022/01/29 03:54:57;;;;;;;6.90;5.13;;;6.60;99.90;;;;;;5014287;28;20288;-68
2022/01/29 03:57:24;;;;;;;4.53;4.10;;;6.60;99.90;;;;;;5027836;28;20260;-68
2022/01/29 03:59:50;;;;;;;6.90;4.45;;;6.60;99.90;;;;;;5010787;28;20203;-68
2022/01/29 04:02:17;;;;;;;8.95;5.90;;;6.60;99.90;;;;;;5026987;28;20210;-68
2022/01/29 04:04:45;;;;;;;7.40;4.47;;;6.50;99.90;;;;;;5026163;28;20700;-68
2022/01/29 04:07:12;;;;;;;7.35;4.80;;;6.50;99.90;;;;;;5034570;28;20275;-68
2022/01/29 04:09:46;;;;;;;6.93;4.18;;;6.50;99.90;;;;;;5030054;28;20201;-68
2022/01/29 04:12:13;;;;;;;5.90;4.25;;;6.50;99.90;;;;;;5023317;28;20198;-68
2022/01/29 04:14:40;;;;;;;6.75;5.25;;;6.50;99.90;;;;;;5011653;28;20715;-68
2022/01/29 04:17:08;;;;;;;11.02;3.75;;;6.50;99.90;;;;;;5015803;28;20211;-68
2022/01/29 04:19:35;;;;;;;8.02;3.13;;;6.50;99.90;;;;;;5026764;28;20313;-68
2022/01/29 04:22:04;;;;;;;8.55;4.30;;;6.60;99.90;;;;;;5023694;28;20664;-68
2022/01/29 04:24:31;;;;;;;6.65;3.75;;;6.60;99.90;;;;;;5021706;28;20637;-68
2022/01/29 04:26:58;;;;;;;7.20;4.90;;;6.60;99.90;;;;;;5020246;28;20983;-68
2022/01/29 04:29:27;;;;;;;7.30;4.15;;;6.60;99.90;;;;;;5017227;28;20222;-68
2022/01/29 04:32:05;;;;;;;3.63;3.05;;;6.60;99.90;;;;;;5025626;28;20198;-68
2022/01/29 04:34:32;;;;;;;5.57;3.60;;;6.70;99.90;;;;;;5017225;28;20693;-68
2022/01/29 04:36:58;;;;;;;4.43;3.53;;;6.70;99.90;;;;;;5029979;28;20202;-67
2022/01/29 04:39:26;;;;;;;7.18;4.22;;;6.70;99.90;;;;;;5017146;28;20397;-68
2022/01/29 04:41:53;;;;;;;3.55;3.22;;;6.70;99.90;;;;;;5031655;28;20628;-68
2022/01/29 04:44:20;;;;;;;4.30;3.10;;;6.70;99.90;;;;;;5022572;28;20284;-68
2022/01/29 04:46:46;;;;;;;5.53;2.95;;;6.70;99.90;;;;;;5020242;28;20233;-68
2022/01/29 04:49:13;;;;;;;4.10;2.95;;;6.70;99.90;;;;;;5017903;28;20219;-68
2022/01/29 04:51:40;;;;;;;3.90;3.13;;;6.60;99.90;;;;;;5031046;28;20239;-68
2022/01/29 04:54:06;;;;;;;3.92;2.88;;;6.50;99.90;;;;;;5016999;28;20227;-68
2022/01/29 04:56:34;;;;;;;2.90;2.63;;;6.50;99.90;;;;;;5033858;28;20352;-68
2022/01/29 04:59:01;;;;;;;5.35;3.22;;;6.50;99.90;;;;;;5022852;28;20203;-68
2022/01/29 05:01:28;;;;;;;3.00;2.80;;;6.40;99.90;;;;;;5024900;28;20650;-68
2022/01/29 05:03:54;;;;;;;2.90;2.55;;;6.40;99.90;;;;;;5019074;28;20322;-68
2022/01/29 05:06:21;;;;;;;4.40;3.10;;;6.40;99.90;;;;;;5021194;28;20250;-68
2022/01/29 05:08:47;;;;;;;2.85;2.45;;;6.40;99.90;;;;;;5026796;28;20199;-68
2022/01/29 05:11:15;;;;;;;3.10;2.80;;;6.40;99.90;;;;;;5033993;28;20644;-68
2022/01/29 05:13:43;;;;;;;3.38;2.65;;;6.40;99.90;;;;;;5028807;28;20222;-67
2022/01/29 05:16:34;;;;;;;2.95;2.05;;;6.40;99.90;;;;;;5026280;28;20195;-69
2022/01/29 05:27:13;;;;;;;2.97;2.45;;;6.40;99.90;;;;;;5027157;28;20582;-68
2022/01/29 05:29:41;;;;;;;3.25;2.47;;;6.40;99.90;;;;;;5027801;28;20209;-68
2022/01/29 05:32:11;;;;;;;2.85;2.65;;;6.40;99.90;;;;;;5018904;28;20628;-68
2022/01/29 05:34:40;;;;;;;3.00;2.80;;;6.40;99.90;;;;;;5023161;28;20537;-67
2022/01/29 05:37:07;;;;;;;2.90;2.50;;;6.40;99.90;;;;;;5020120;28;20265;-67
2022/01/29 05:39:34;;;;;;;4.63;2.28;;;6.50;99.90;;;;;;5029361;28;20221;-67
2022/01/29 05:42:00;;;;;;;2.13;1.92;;;6.50;99.90;;;;;;5020726;28;20272;-67
2022/01/29 05:44:27;;;;;;;2.10;1.77;;;6.50;99.90;;;;;;5021474;28;20226;-67
2022/01/29 05:46:55;;;;;;;2.10;1.90;;;6.60;99.90;;;;;;5024977;28;20233;-67
2022/01/29 05:49:22;;;;;;;2.65;2.28;;;6.60;99.90;;;;;;5023145;28;20215;-67
2022/01/29 05:51:49;;;;;;;2.78;2.55;;;6.60;99.90;;;;;;5025159;28;20202;-67
2022/01/29 05:54:16;;;;;;;4.03;2.50;;;6.70;99.90;;;;;;5022558;28;20688;-67
2022/01/29 05:56:42;;;;;;;3.40;2.05;;;6.70;99.90;;;;;;5017552;28;20298;-67
2022/01/29 05:59:09;;;;;;;2.55;2.03;;;6.70;99.90;;;;;;5019574;28;20692;-67
2022/01/29 06:01:36;;;;;;;2.28;1.58;;;6.70;99.90;;;;;;5015567;28;20210;-67
2022/01/29 06:04:06;;;;;;;2.85;1.85;;;6.70;99.90;;;;;;5023132;28;20862;-67
2022/01/29 06:06:32;;;;;;;2.42;2.22;;;6.70;99.90;;;;;;5025446;28;20872;-67
2022/01/29 06:09:01;;;;;;;1.77;1.40;;;6.70;99.90;;;;;;5021224;28;20203;-67
2022/01/29 06:11:28;;;;;;;4.40;2.45;;;6.70;99.90;;;;;;5026141;28;20194;-67
2022/01/29 06:13:54;;;;;;;4.32;2.63;;;6.70;99.90;;;;;;5015806;28;20235;-66
2022/01/29 06:16:21;;;;;;;1.60;1.23;;;6.60;99.90;;;;;;5019806;28;20211;-67
2022/01/29 06:18:48;;;;;;;2.72;2.10;;;6.60;99.90;;;;;;5020154;28;20261;-67
2022/01/29 06:21:16;;;;;;;2.30;1.80;;;6.60;99.90;;;;;;5020193;28;20601;-67
2022/01/29 06:23:43;;;;;;;2.05;1.77;;;6.60;99.90;;;;;;5019343;28;20267;-67
2022/01/29 06:26:12;;;;;;;2.92;2.22;;;6.50;99.90;;;;;;5026878;28;20286;-68
2022/01/29 06:28:40;;;;;;;3.22;3.03;;;6.50;99.90;;;;;;5016337;28;20215;-67
2022/01/29 06:31:09;;;;;;;2.42;1.80;;;6.60;99.90;;;;;;5020831;28;20296;-67
2022/01/29 06:33:36;;;;;;;2.63;2.10;;;6.60;99.90;;;;;;5020541;28;20334;-67
2022/01/29 06:36:03;;;;;;;2.35;2.15;;;6.60;99.90;;;;;;5030415;28;20266;-66
2022/01/29 06:38:32;;;;;;;2.15;1.80;;;6.60;99.90;;;;;;5028897;28;20198;-67
2022/01/29 06:40:58;;;;;;;2.70;2.50;;;6.60;99.90;;;;;;5029842;28;20659;-67
2022/01/29 06:43:26;;;;;;;2.72;2.50;;;6.60;99.90;;;;;;5017470;28;20226;-68
2022/01/29 06:45:53;;;;;;;4.80;3.00;;;6.60;99.90;;;;;;5019521;28;20676;-68
2022/01/29 06:48:19;;;;;;;2.47;2.28;;;6.70;99.90;;;;;;5023377;28;20258;-68
2022/01/29 06:50:46;;;;;;;2.33;1.60;;;6.70;99.90;;;;;;5030524;28;20263;-67
2022/01/29 06:53:13;;;;;;;3.60;2.55;;;6.70;99.90;;;;;;5021238;28;20464;-68
2022/01/29 06:55:41;;;;;;;2.83;2.53;;;6.70;99.90;;;;;;5030039;28;21042;-67
2022/01/29 06:58:08;;;;;;;2.90;2.70;;;6.70;99.90;;;;;;5015444;28;20230;-68
2022/01/29 07:00:34;;;;;;;2.92;2.03;;;6.70;99.90;;;;;;5026662;28;20198;-67
2022/01/29 07:03:01;;;;;;;2.83;2.65;;;6.80;99.90;;;;;;5026958;28;20919;-68
2022/01/29 07:05:27;;;;;;;4.07;2.78;;;6.80;99.90;;;;;;5025958;28;20198;-68
2022/01/29 07:07:54;;;;;;;2.42;2.22;;;6.90;99.90;;;;;;5022937;28;20261;-68
2022/01/29 07:10:21;;;;;;;1.42;1.33;;;6.90;99.90;;;;;;5019067;28;20306;-66
2022/01/29 07:12:49;;;;;;;2.58;1.77;;;6.90;99.90;;;;;;5011139;28;20219;-67
2022/01/29 07:15:15;;;;;;;2.13;1.90;;;7.00;99.90;;;;;;5023399;28;20274;-68
2022/01/29 07:17:42;;;;;;;1.35;1.25;;;7.00;99.90;;;;;;5018594;28;20469;-70
2022/01/29 07:20:09;;;;;;;2.55;2.30;;;7.10;99.90;;;;;;5016301;28;20695;-67
2022/01/29 07:22:38;;;;;;;2.80;2.50;;;7.30;99.90;;;;;;5025208;28;20479;-69
2022/01/29 07:25:05;;;;;;;3.20;2.47;;;7.50;99.90;;;;;;5026962;28;20304;-71
2022/01/29 07:27:32;;;;;;;2.42;2.20;;;7.50;99.90;;;;;;5022615;28;20589;-71
2022/01/29 07:30:00;;;;;;;2.50;2.30;;;7.50;99.90;;;;;;5010669;28;20541;-66
2022/01/29 07:32:26;;;;;;;2.28;2.08;;;7.50;99.90;;;;;;5031512;28;20241;-67
2022/01/29 07:34:53;;;;;;;3.10;2.00;;;7.50;99.90;;;;;;5020594;28;20231;-65
2022/01/29 07:37:19;;;;;;;2.60;2.40;;;7.50;99.90;;;;;;5021759;28;20272;-66
2022/01/29 07:39:46;;;;;;;2.72;1.88;;;7.50;99.90;;;;;;5020379;28;20668;-67
2022/01/29 07:42:13;;;;;;;2.05;1.85;;;7.40;99.90;;;;;;5025062;28;20218;-67
2022/01/29 07:44:39;;;;;;;3.40;2.10;;;7.40;99.90;;;;;;5022687;28;20234;-66
2022/01/29 07:47:08;;;;;;;1.45;1.27;;;7.50;99.90;;;;;;5013579;28;20199;-66
2022/01/29 07:49:35;;;;;;;1.80;1.70;;;7.50;99.90;;;;;;5010717;28;20624;-67
2022/01/29 07:52:02;;;;;;;2.03;1.77;;;7.50;99.90;;;;;;5010645;28;20248;-67
2022/01/29 07:54:28;;;;;;;1.92;1.83;;;7.50;99.90;;;;;;5008408;28;20241;-67
2022/01/29 07:56:55;;;;;;;2.28;1.77;;;7.50;99.90;;;;;;5012948;28;20299;-66
2022/01/29 07:59:22;;;;;;;2.33;2.13;;;7.60;99.90;;;;;;5007893;28;20276;-66
2022/01/29 08:01:48;;;;;;;2.17;1.75;;;7.60;99.90;;;;;;5014032;28;20210;-67
2022/01/29 08:04:16;;;;;;;3.22;2.38;;;7.60;99.90;;;;;;5019372;28;20223;-66
2022/01/29 08:06:43;;;;;;;2.55;1.75;;;7.70;99.90;;;;;;5022132;28;20194;-66
2022/01/29 08:09:10;;;;;;;8.27;2.10;;;7.70;99.90;;;;;;5014518;28;20218;-68
2022/01/29 08:11:36;;;;;;;2.33;2.13;;;7.70;99.90;;;;;;5017248;28;20679;-65
2022/01/29 08:14:03;;;;;;;2.78;1.92;;;7.70;99.90;;;;;;5023964;28;20315;-66
2022/01/29 08:16:30;;;;;;;2.22;1.52;;;7.80;99.90;;;;;;5012364;28;20218;-64
2022/01/29 08:18:56;;;;;;;2.90;2.67;;;7.80;99.90;;;;;;5021289;28;20210;-67
2022/01/29 08:21:24;;;;;;;2.60;2.40;;;7.80;99.90;;;;;;5018176;28;20229;-66
2022/01/29 08:23:51;;;;;;;2.50;2.30;;;7.80;99.90;;;;;;5016391;28;20596;-67
2022/01/29 08:26:18;;;;;;;3.50;2.30;;;7.80;99.90;;;;;;5009031;28;20222;-66
2022/01/29 08:28:45;;;;;;;3.22;2.75;;;7.90;99.90;;;;;;5006790;28;20614;-67
2022/01/29 08:31:11;;;;;;;3.38;2.53;;;7.90;99.90;;;;;;5018537;28;20283;-67
2022/01/29 08:33:38;;;;;;;2.10;1.52;;;7.90;99.90;;;;;;5017113;28;20315;-65
2022/01/29 08:36:07;;;;;;;2.42;2.20;;;7.90;99.90;;;;;;5021987;28;20316;-66
2022/01/29 08:38:35;;;;;;;3.85;2.40;;;7.90;99.90;;;;;;5032050;28;20206;-66
2022/01/29 08:41:03;;;;;;;2.55;2.15;;;8.00;99.90;;;;;;5015052;28;20210;-65
2022/01/29 08:43:30;;;;;;;1.98;1.85;;;8.00;99.90;;;;;;5007878;28;20295;-66
2022/01/29 08:45:56;;;;;;;2.40;2.22;;;8.00;99.90;;;;;;5011853;28;20253;-64
2022/01/29 08:48:23;;;;;;;2.45;2.25;;;8.10;99.90;;;;;;5018273;28;20218;-67
2022/01/29 08:50:50;;;;;;;2.42;2.25;;;8.10;99.90;;;;;;5016939;28;20257;-67
2022/01/29 08:53:18;;;;;;;4.00;1.95;;;8.10;99.90;;;;;;5006259;28;20227;-65
2022/01/29 08:55:47;;;;;;;1.77;1.67;;;8.10;99.90;;;;;;5016395;28;20692;-67
2022/01/29 08:58:14;;;;;;;2.15;1.65;;;8.10;99.90;;;;;;5009083;28;20987;-67
2022/01/29 09:00:44;;;;;;;2.13;1.95;;;8.20;99.90;;;;;;5008929;28;20207;-67
2022/01/29 09:03:12;;;;;;;1.50;1.40;;;8.20;99.90;;;;;;5020089;28;20215;-66
2022/01/29 09:05:39;;;;;;;2.05;1.83;;;8.20;99.90;;;;;;5015294;28;20563;-66
2022/01/29 09:08:06;;;;;;;3.35;3.05;;;8.30;99.90;;;;;;5014150;28;20239;-67
2022/01/29 09:10:32;;;;;;;2.65;2.13;;;8.30;99.90;;;;;;5012742;28;20281;-67
2022/01/29 09:13:01;;;;;;;2.00;1.77;;;8.30;99.90;;;;;;5007367;28;20669;-65
2022/01/29 09:15:27;;;;;;;3.95;2.35;;;8.30;99.90;;;;;;5008468;28;20227;-65
2022/01/29 09:17:54;;;;;;;1.45;1.35;;;8.30;99.90;;;;;;5015931;28;20225;-67
2022/01/29 09:20:20;;;;;;;1.67;1.57;;;8.30;99.90;;;;;;5010277;28;20211;-67
2022/01/29 09:22:47;;;;;;;1.60;1.50;;;8.30;99.90;;;;;;5013223;28;20503;-67
2022/01/29 09:25:14;;;;;;;1.63;1.25;;;8.40;99.90;;;;;;5011753;28;20199;-67
2022/01/29 09:27:41;;;;;;;1.95;1.60;;;8.40;99.90;;;;;;5021239;28;20207;-66
2022/01/29 09:30:09;;;;;;;1.85;1.75;;;8.50;99.90;;;;;;5016555;28;20272;-66
2022/01/29 09:32:36;;;;;;;2.40;2.27;;;8.50;99.90;;;;;;5012855;28;20227;-66
2022/01/29 09:35:04;;;;;;;1.92;1.58;;;8.50;99.90;;;;;;5010306;28;20940;-68
2022/01/29 09:37:30;;;;;;;1.90;1.80;;;8.50;99.90;;;;;;5025715;28;20198;-66
2022/01/29 09:39:57;;;;;;;2.37;2.17;;;8.60;99.90;;;;;;5016851;28;20706;-66
2022/01/29 09:42:24;;;;;;;1.77;1.67;;;8.70;99.90;;;;;;5017475;28;22493;-67
2022/01/29 09:44:52;;;;;;;1.70;1.60;;;8.80;99.90;;;;;;5023784;28;20844;-67
2022/01/29 09:47:23;;;;;;;1.90;1.80;;;8.90;99.90;;;;;;5011362;28;20501;-67
2022/01/29 09:49:50;;;;;;;2.00;1.77;;;9.00;99.90;;;;;;5023429;28;20965;-67
2022/01/29 09:52:17;;;;;;;1.60;1.50;;;9.10;99.90;;;;;;5013856;28;20973;-68
2022/01/29 09:54:48;;;;;;;1.27;1.13;;;9.20;99.90;;;;;;5023697;28;21008;-67
2022/01/29 09:57:14;;;;;;;2.57;1.93;;;9.20;99.90;;;;;;5007137;28;20597;-67
2022/01/29 09:59:41;;;;;;;1.67;1.57;;;9.30;99.90;;;;;;5017293;28;20576;-67
2022/01/29 10:02:14;;;;;;;1.90;1.23;;;9.40;99.90;;;;;;5019502;28;20790;-66
2022/01/29 10:04:50;;;;;;;2.60;2.10;;;9.40;99.90;;;;;;5013906;28;20462;-66
2022/01/29 10:07:18;;;;;;;1.70;1.20;;;9.40;99.90;;;;;;5006837;28;20604;-66
2022/01/29 10:09:46;;;;;;;1.73;1.63;;;9.40;99.90;;;;;;5021239;28;20454;-67
2022/01/29 10:12:17;;;;;;;1.40;1.30;;;9.40;99.90;;;;;;5016164;28;20804;-66
2022/01/29 10:14:48;;;;;;;1.70;1.60;;;9.40;99.90;;;;;;5014480;28;20926;-66
2022/01/29 10:17:40;;;;;;;1.63;1.53;;;9.40;99.90;;;;;;5013224;28;20712;-65
2022/01/29 10:20:13;;;;;;;1.30;1.20;;;9.50;99.90;;;;;;5024065;28;20514;-66
2022/01/29 10:22:40;;;;;;;1.70;1.60;;;9.60;99.90;;;;;;5010279;28;20489;-66
2022/01/29 10:25:12;;;;;;;1.57;1.33;;;9.60;99.90;;;;;;5010705;28;20466;-67
2022/01/29 10:27:39;;;;;;;4.90;1.60;;;9.60;99.90;;;;;;5016417;28;20555;-66
2022/01/29 10:30:09;;;;;;;1.57;1.47;;;9.60;99.90;;;;;;5009108;28;20626;-66
2022/01/29 10:32:36;;;;;;;1.50;1.40;;;9.60;99.90;;;;;;5014649;28;20469;-66
2022/01/29 10:35:03;;;;;;;5.73;4.67;;;9.70;99.90;;;;;;5011869;28;20542;-65
2022/01/29 10:37:31;;;;;;;1.50;0.87;;;9.70;99.90;;;;;;5017067;28;20482;-65
2022/01/29 10:40:00;;;;;;;0.80;0.77;;;9.70;99.90;;;;;;5008023;28;20462;-66
2022/01/29 10:42:29;;;;;;;1.43;1.33;;;9.80;99.90;;;;;;5012085;28;20520;-66
2022/01/29 10:44:59;;;;;;;1.20;1.10;;;9.80;99.90;;;;;;5013484;28;20504;-64
2022/01/29 10:47:27;;;;;;;1.23;1.13;;;9.80;99.90;;;;;;5027428;28;20480;-65
2022/01/29 10:49:55;;;;;;;1.27;1.17;;;9.80;99.90;;;;;;5016713;28;20466;-67
2022/01/29 10:52:32;;;;;;;0.67;0.67;;;9.80;99.90;;;;;;5023139;28;20667;-65
2022/01/29 10:55:01;;;;;;;1.77;0.97;;;9.80;99.90;;;;;;5014165;28;20466;-65
2022/01/29 10:57:33;;;;;;;1.00;1.00;;;9.90;99.90;;;;;;5017111;28;20482;-65
2022/01/29 11:00:00;;;;;;;1.23;1.07;;;10.00;99.90;;;;;;5011289;28;20549;-64
2022/01/29 11:02:30;;;;;;;0.93;0.87;;;10.10;99.90;;;;;;5006520;28;20450;-66
2022/01/29 11:04:57;;;;;;;0.70;0.70;;;10.10;99.90;;;;;;5007685;28;20473;-64
2022/01/29 11:07:27;;;;;;;1.03;0.90;;;10.10;99.90;;;;;;5015972;28;20480;-63
2022/01/29 11:09:57;;;;;;;0.90;0.90;;;10.10;99.90;;;;;;5011479;28;21038;-65
2022/01/29 11:12:26;;;;;;;1.30;1.20;;;10.30;99.90;;;;;;5023728;28;20820;-65
2022/01/29 11:14:55;;;;;;;0.90;0.67;;;10.30;99.90;;;;;;5019930;28;20936;-65
2022/01/29 11:17:24;;;;;;;0.80;0.77;;;10.30;99.90;;;;;;5009415;28;20490;-65
2022/01/29 11:19:51;;;;;;;0.73;0.73;;;10.20;99.90;;;;;;5005879;28;20474;-67
2022/01/29 11:22:21;;;;;;;0.57;0.47;;;10.20;99.90;;;;;;5005731;28;20458;-66
2022/01/29 11:24:49;;;;;;;1.10;0.80;;;10.20;99.90;;;;;;5008832;28;20458;-65
2022/01/29 11:27:25;;;;;;;0.70;0.67;;;10.20;99.90;;;;;;5013427;28;20560;-66
2022/01/29 11:30:05;;;;;;;0.60;0.60;;;10.20;99.90;;;;;;5020880;28;20458;-64
2022/01/29 11:32:39;;;;;;;0.67;0.67;;;10.20;99.90;;;;;;5020743;28;20469;-65
2022/01/29 11:35:21;;;;;;;1.50;1.40;;;10.20;99.90;;;;;;5017825;28;20465;-65
2022/01/29 11:37:57;;;;;;;0.70;0.70;;;10.10;99.90;;;;;;5013044;28;20489;-64
2022/01/29 11:40:29;;;;;;;0.60;0.60;;;10.10;99.90;;;;;;5009175;28;20535;-65
2022/01/29 11:43:06;;;;;;;0.90;0.70;;;10.10;99.90;;;;;;5007000;28;21063;-66
2022/01/29 11:45:38;;;;;;;0.53;0.53;;;10.00;99.90;;;;;;5015921;28;20942;-66
2022/01/29 11:48:06;;;;;;;0.70;0.60;;;10.00;99.90;;;;;;5012301;28;20440;-65
2022/01/29 11:50:49;;;;;;;0.93;0.80;;;10.00;99.90;;;;;;5004284;28;20428;-63
2022/01/29 11:53:17;;;;;;;1.00;0.70;;;9.90;99.90;;;;;;5019500;28;20488;-65
2022/01/29 11:55:46;;;;;;;1.73;0.80;;;9.90;99.90;;;;;;5012142;28;20889;-65
2022/01/29 11:58:32;;;;;;;0.50;0.50;;;9.90;99.90;;;;;;5008635;28;20860;-67
2022/01/29 12:01:00;;;;;;;33.13;7.13;;;9.80;99.90;;;;;;5010423;28;20727;-70
2022/01/29 12:03:53;;;;;;;0.73;0.73;;;9.70;99.90;;;;;;5021507;28;20473;-65
2022/01/29 12:06:23;;;;;;;1.37;1.27;;;9.70;99.90;;;;;;5015806;28;20463;-65
2022/01/29 12:09:21;;;;;;;1.00;0.90;;;9.60;99.90;;;;;;5016076;28;20540;-67
2022/01/29 12:12:19;;;;;;;0.60;0.60;;;9.60;99.90;;;;;;5012453;28;20582;-65
2022/01/29 12:14:48;;;;;;;0.73;0.73;;;9.60;99.90;;;;;;5022551;28;20461;-66
2022/01/29 12:17:35;;;;;;;0.73;0.73;;;9.80;99.90;;;;;;5050933;23;20503;-70
2022/01/29 12:20:03;;;;;;;0.93;0.90;;;9.90;99.90;;;;;;5064207;28;20448;-71
2022/01/29 12:22:34;;;;;;;0.83;0.83;;;9.90;99.90;;;;;;5070661;28;20443;-71
2022/01/29 12:25:03;;;;;;;1.23;1.00;;;10.00;99.90;;;;;;5068001;28;20546;-69
2022/01/29 12:27:42;;;;;;;0.87;0.87;;;10.20;99.90;;;;;;5065665;28;20475;-70
2022/01/29 12:30:11;;;;;;;1.50;1.17;;;10.30;99.90;;;;;;5051743;28;20440;-69
2022/01/29 12:32:38;;;;;;;1.03;0.87;;;10.30;99.90;;;;;;5057653;28;20979;-69
2022/01/29 12:35:05;;;;;;;1.00;0.90;;;10.50;99.90;;;;;;5049273;28;20518;-70
2022/01/29 12:37:32;;;;;;;1.57;1.20;;;10.50;99.90;;;;;;5049588;28;20491;-71
2022/01/29 12:40:17;;;;;;;1.70;0.80;;;10.50;99.90;;;;;;5068524;28;20426;-71
2022/01/29 12:42:54;;;;;;;0.70;0.50;;;10.50;99.90;;;;;;5039174;28;20823;-70
2022/01/29 12:45:23;;;;;;;3.70;0.97;;;10.50;99.90;;;;;;5067741;28;20513;-70
2022/01/29 12:47:50;;;;;;;0.70;0.60;;;10.40;99.90;;;;;;5050105;28;20514;-70
2022/01/29 12:50:21;;;;;;;2.10;1.00;;;10.40;99.90;;;;;;5048181;28;20448;-71
2022/01/29 12:52:48;;;;;;;1.40;1.30;;;10.20;99.90;;;;;;5052445;28;20532;-69
2022/01/29 12:55:15;;;;;;;1.03;0.90;;;10.00;99.90;;;;;;5057744;28;20526;-71
2022/01/29 12:57:44;;;;;;;1.37;1.27;;;9.90;99.90;;;;;;5059913;28;20553;-69
2022/01/29 13:00:13;;;;;;;0.97;0.90;;;9.80;99.90;;;;;;5058982;28;20444;-71
2022/01/29 13:02:42;;;;;;;1.07;0.80;;;9.80;99.90;;;;;;5059657;28;20444;-71
2022/01/29 13:05:09;;;;;;;1.10;1.00;;;9.80;99.90;;;;;;5053707;28;20454;-70
2022/01/29 13:07:36;;;;;;;1.40;1.30;;;9.70;99.90;;;;;;5053409;28;20551;-70
2022/01/29 13:10:04;;;;;;;1.30;1.20;;;9.70;99.90;;;;;;5052832;28;20641;-71